Weather at St Louis Lambert International Airport

Public forecast

Using degrees Fahrenheit for public forecast. Weather courtesy of forecast.io.

Current aviation weather report (METAR) for St Louis Lambert International Airport

Retrieved 2021/10/22 05:37 UTC (21 minutes ago):

KSTL 220537Z 29004KT 10SM BKN028 BKN049 11/07 A3012 RMK AO2 T01060067

Aviation forecast (TAF) for St Louis Lambert International Airport

Retrieved 2021-10-22 00:24 UTC (6 hours ago):

TAF KSTL 212321Z 2200/2306 31008KT P6SM OVC035 FM220800 31006KT P6SM OVC025 FM221400 29006KT P6SM BKN045